Time;durP1;ratioP1;P1;durP2;ratioP2;P2;SDS_P1;SDS_P2;PMS_P1;PMS_P2;Temp;Humidity;BMP_temperature;BMP_pressure;BME280_temperature;BME280_humidity;BME280_pressure;Samples;Min_cycle;Max_cycle;Signal;HPM_P1;HPM_P2
2023/01/23 00:01:39;;;;;;;;;;;2.30;99.90;;;;;;5077787;28;19962;-69
2023/01/23 00:04:05;;;;;;;;;;;2.50;99.90;;;;;;5072649;28;19991;-68
2023/01/23 00:06:30;;;;;;;;;;;2.40;99.90;;;;;;5083235;28;20006;-68
2023/01/23 00:08:56;;;;;;;;;;;2.50;99.90;;;;;;5080611;28;19908;-68
2023/01/23 00:11:23;;;;;;;;;;;2.40;99.90;;;;;;5084058;28;20311;-68
2023/01/23 00:13:48;;;;;;;;;;;2.40;99.90;;;;;;5091536;28;19961;-69
2023/01/23 00:16:16;;;;;;;;;;;2.40;99.90;;;;;;5087455;28;20281;-68
2023/01/23 00:18:41;;;;;;;;;;;2.40;99.90;;;;;;5092244;28;20387;-68
2023/01/23 00:21:07;;;;;;;;;;;2.50;99.90;;;;;;5082210;28;19908;-69
2023/01/23 00:23:33;;;;;;;;;;;2.40;99.90;;;;;;5080569;28;19909;-69
2023/01/23 00:26:07;;;;;;;;;;;2.40;99.90;;;;;;5089462;28;20283;-69
2023/01/23 00:28:33;;;;;;;;;;;2.40;99.90;;;;;;5090324;28;19908;-69
2023/01/23 00:31:03;;;;;;;;;;;2.40;99.90;;;;;;5087079;28;19914;-69
2023/01/23 00:33:28;;;;;;;;;;;2.40;99.90;;;;;;5081393;28;19911;-68
2023/01/23 00:35:54;;;;;;;;;;;2.50;99.90;;;;;;5088784;28;19907;-69
2023/01/23 00:38:19;;;;;;;;;;;2.50;99.90;;;;;;5079004;28;20437;-69
2023/01/23 00:40:45;;;;;;;;;;;2.30;99.90;;;;;;5085325;28;19915;-68
2023/01/23 00:43:10;;;;;;;;;;;2.40;99.90;;;;;;5085415;28;19967;-68
2023/01/23 00:45:37;;;;;;;;;;;2.40;99.90;;;;;;5077082;28;19915;-68
2023/01/23 00:48:02;;;;;;;;;;;2.40;99.90;;;;;;5084589;28;20272;-68
2023/01/23 00:50:28;;;;;;;;;;;2.40;99.90;;;;;;5089244;28;19907;-68
2023/01/23 00:52:53;;;;;;;;;;;2.40;99.90;;;;;;5089797;28;19910;-68
2023/01/23 00:55:19;;;;;;;;;;;2.40;99.90;;;;;;5087305;28;19908;-68
2023/01/23 00:57:44;;;;;;;;;;;2.30;99.90;;;;;;5079914;28;19920;-68
2023/01/23 01:00:10;;;;;;;;;;;2.40;99.90;;;;;;5085554;28;19908;-68
2023/01/23 01:02:35;;;;;;;;;;;2.30;99.90;;;;;;5096264;28;19919;-68
2023/01/23 01:05:01;;;;;;;;;;;2.40;99.90;;;;;;5077635;28;19915;-68
2023/01/23 01:07:26;;;;;;;;;;;2.40;99.90;;;;;;5080164;28;19908;-68
2023/01/23 01:09:52;;;;;;;;;;;2.30;99.90;;;;;;5074953;28;19998;-68
2023/01/23 01:12:18;;;;;;;;;;;2.50;99.90;;;;;;5084429;28;19907;-68
2023/01/23 01:14:43;;;;;;;;;;;2.30;99.90;;;;;;5084344;28;19907;-68
2023/01/23 01:17:09;;;;;;;;;;;2.50;99.90;;;;;;5086640;28;20257;-68
2023/01/23 01:19:35;;;;;;;;;;;2.40;99.90;;;;;;5088693;28;19934;-68
2023/01/23 01:22:00;;;;;;;;;;;2.40;99.90;;;;;;5087743;28;19908;-68
2023/01/23 01:24:26;;;;;;;;;;;2.40;99.90;;;;;;5077180;28;19904;-68
2023/01/23 01:26:51;;;;;;;;;;;2.40;99.90;;;;;;5090665;28;19965;-68
2023/01/23 01:29:17;;;;;;;;;;;2.40;99.90;;;;;;5089344;28;19904;-68
2023/01/23 01:31:42;;;;;;;;;;;2.40;99.90;;;;;;5081764;28;19908;-67
2023/01/23 01:34:08;;;;;;;;;;;2.40;99.90;;;;;;5086924;28;19947;-68
2023/01/23 01:36:33;;;;;;;;;;;2.50;99.90;;;;;;5078015;28;19923;-68
2023/01/23 01:38:59;;;;;;;;;;;2.40;99.90;;;;;;5087558;28;19904;-68
2023/01/23 01:41:24;;;;;;;;;;;2.50;99.90;;;;;;5082926;28;19908;-68
2023/01/23 01:43:52;;;;;;;;;;;2.50;99.90;;;;;;5084732;28;19920;-68
2023/01/23 01:46:19;;;;;;;;;;;2.40;99.90;;;;;;5073155;28;19908;-67
2023/01/23 01:49:04;;;;;;;;;;;2.50;99.90;;;;;;5088188;28;20357;-68
2023/01/23 01:51:32;;;;;;;;;;;2.40;99.90;;;;;;5085378;28;19908;-68
2023/01/23 01:54:01;;;;;;;;;;;2.40;99.90;;;;;;5084846;28;20334;-67
2023/01/23 01:56:27;;;;;;;;;;;2.40;99.90;;;;;;5079506;28;20389;-67
2023/01/23 01:58:54;;;;;;;;;;;2.40;99.90;;;;;;5081695;28;19927;-68
2023/01/23 02:01:19;;;;;;;;;;;2.40;99.90;;;;;;5070770;28;19914;-67
2023/01/23 02:03:45;;;;;;;;;;;2.40;99.90;;;;;;5070621;28;20339;-67
2023/01/23 02:06:11;;;;;;;;;;;2.40;99.90;;;;;;5083057;28;19919;-67
2023/01/23 02:08:40;;;;;;;;;;;2.40;99.90;;;;;;5079955;28;20373;-68
2023/01/23 02:11:06;;;;;;;;;;;2.40;99.90;;;;;;5082705;28;19935;-68
2023/01/23 02:13:34;;;;;;;;;;;2.50;99.90;;;;;;5073945;28;19955;-67
2023/01/23 02:16:04;;;;;;;;;;;2.40;99.90;;;;;;5074561;28;19915;-68
2023/01/23 02:18:31;;;;;;;;;;;2.40;99.90;;;;;;5082825;28;19912;-68
2023/01/23 02:20:58;;;;;;;;;;;2.40;99.90;;;;;;5088821;28;20368;-67
2023/01/23 02:23:49;;;;;;;;;;;2.50;99.90;;;;;;5081170;28;19915;-67
2023/01/23 02:26:17;;;;;;;;;;;2.60;99.90;;;;;;5075175;28;19908;-68
2023/01/23 02:28:42;;;;;;;;;;;2.50;99.90;;;;;;5075189;28;20381;-67
2023/01/23 02:31:08;;;;;;;;;;;2.50;99.90;;;;;;5083408;28;19951;-68
2023/01/23 02:33:33;;;;;;;;;;;2.50;99.90;;;;;;5078536;28;20383;-68
2023/01/23 02:36:00;;;;;;;;;;;2.40;99.90;;;;;;5080300;28;20341;-67
2023/01/23 02:38:28;;;;;;;;;;;2.50;99.90;;;;;;5078945;28;19912;-68
2023/01/23 02:40:54;;;;;;;;;;;2.50;99.90;;;;;;5085690;28;19915;-68
2023/01/23 02:43:22;;;;;;;;;;;2.50;99.90;;;;;;5081753;28;19916;-68
2023/01/23 02:45:48;;;;;;;;;;;2.50;99.90;;;;;;5075341;28;19908;-68
2023/01/23 02:48:13;;;;;;;;;;;2.50;99.90;;;;;;5078543;28;19908;-67
2023/01/23 02:50:39;;;;;;;;;;;2.50;99.90;;;;;;5087425;28;20272;-67
2023/01/23 02:53:05;;;;;;;;;;;2.60;99.90;;;;;;5090276;28;19926;-67
2023/01/23 02:55:36;;;;;;;;;;;2.50;99.90;;;;;;5081225;28;19983;-68
2023/01/23 03:00:46;;;;;;;;;;;2.60;99.90;;;;;;5074234;28;19923;-68
2023/01/23 03:03:12;;;;;;;;;;;2.60;99.90;;;;;;5087801;28;19908;-68
2023/01/23 03:05:37;;;;;;;;;;;2.70;99.90;;;;;;5092246;28;19962;-68
2023/01/23 03:08:03;;;;;;;;;;;2.60;99.90;;;;;;5078368;28;20008;-70
2023/01/23 03:10:29;;;;;;;;;;;2.50;99.90;;;;;;5082289;28;19915;-70
2023/01/23 03:12:57;;;;;;;;;;;2.60;99.90;;;;;;5076604;28;20013;-69
2023/01/23 03:15:22;;;;;;;;;;;2.70;99.90;;;;;;5086192;28;19908;-70
2023/01/23 03:17:48;;;;;;;;;;;2.70;99.90;;;;;;5089571;28;19908;-69
2023/01/23 03:20:16;;;;;;;;;;;2.70;99.90;;;;;;5091576;28;19908;-68
2023/01/23 03:22:41;;;;;;;;;;;2.70;99.90;;;;;;5079219;28;19907;-68
2023/01/23 03:25:07;;;;;;;;;;;2.70;99.90;;;;;;5087272;28;19918;-68
2023/01/23 03:27:33;;;;;;;;;;;2.80;99.90;;;;;;5092803;28;19927;-68
2023/01/23 03:30:15;;;;;;;;;;;2.70;99.90;;;;;;5092787;28;19994;-68
2023/01/23 03:32:44;;;;;;;;;;;2.80;99.90;;;;;;5079679;28;19924;-68
2023/01/23 03:35:12;;;;;;;;;;;2.70;99.90;;;;;;5084018;28;19908;-68
2023/01/23 03:37:38;;;;;;;;;;;2.70;99.90;;;;;;5085084;28;19908;-68
2023/01/23 03:42:47;;;;;;;;;;;2.70;99.90;;;;;;5073522;28;19969;-68
2023/01/23 03:45:13;;;;;;;;;;;2.80;99.90;;;;;;5076404;28;20311;-68
2023/01/23 03:47:38;;;;;;;;;;;2.60;99.90;;;;;;5084011;28;19947;-68
2023/01/23 03:50:04;;;;;;;;;;;2.80;99.90;;;;;;5072696;28;19924;-68
2023/01/23 03:52:30;;;;;;;;;;;2.70;99.90;;;;;;5082167;28;19912;-68
2023/01/23 03:54:56;;;;;;;;;;;2.70;99.90;;;;;;5080910;28;20288;-68
2023/01/23 03:57:21;;;;;;;;;;;2.70;99.90;;;;;;5079145;28;19915;-68
2023/01/23 03:59:47;;;;;;;;;;;2.60;99.90;;;;;;5073922;28;19912;-68
2023/01/23 04:02:12;;;;;;;;;;;2.70;99.90;;;;;;5079374;28;19908;-69
2023/01/23 04:04:38;;;;;;;;;;;2.60;99.90;;;;;;5079290;28;20386;-68
2023/01/23 04:07:04;;;;;;;;;;;2.60;99.90;;;;;;5086424;28;19915;-68
2023/01/23 04:09:29;;;;;;;;;;;2.70;99.90;;;;;;5076770;28;19911;-69
2023/01/23 04:11:55;;;;;;;;;;;2.70;99.90;;;;;;5084016;28;19908;-68
2023/01/23 04:14:22;;;;;;;;;;;2.70;99.90;;;;;;5085588;28;19908;-68
2023/01/23 04:16:47;;;;;;;;;;;2.60;99.90;;;;;;5082911;28;19912;-68
2023/01/23 04:19:13;;;;;;;;;;;2.70;99.90;;;;;;5073743;28;19911;-68
2023/01/23 04:21:38;;;;;;;;;;;2.60;99.90;;;;;;5087475;28;19908;-68
2023/01/23 04:24:04;;;;;;;;;;;2.60;99.90;;;;;;5079591;28;19914;-68
2023/01/23 04:26:29;;;;;;;;;;;2.60;99.90;;;;;;5072537;28;20011;-68
2023/01/23 04:28:55;;;;;;;;;;;2.70;99.90;;;;;;5085741;28;19911;-68
2023/01/23 04:31:20;;;;;;;;;;;2.60;99.90;;;;;;5072485;28;19908;-68
2023/01/23 04:33:46;;;;;;;;;;;2.70;99.90;;;;;;5073545;28;19909;-68
2023/01/23 04:36:12;;;;;;;;;;;2.60;99.90;;;;;;5077958;28;20664;-68
2023/01/23 04:38:37;;;;;;;;;;;2.60;99.90;;;;;;5076977;28;19905;-68
2023/01/23 04:41:03;;;;;;;;;;;2.50;99.90;;;;;;5073925;28;20280;-68
2023/01/23 04:43:29;;;;;;;;;;;2.60;99.90;;;;;;5074903;28;19923;-68
2023/01/23 04:45:55;;;;;;;;;;;2.60;99.90;;;;;;5073563;28;19908;-67
2023/01/23 04:48:21;;;;;;;;;;;2.60;99.90;;;;;;5079708;28;19915;-68
2023/01/23 04:50:48;;;;;;;;;;;2.60;99.90;;;;;;5074314;28;20327;-67
2023/01/23 04:53:13;;;;;;;;;;;2.60;99.90;;;;;;5077111;28;19904;-68
2023/01/23 04:55:39;;;;;;;;;;;2.70;99.90;;;;;;5073728;28;19954;-69
2023/01/23 04:58:04;;;;;;;;;;;2.60;99.90;;;;;;5074180;28;19924;-68
2023/01/23 05:00:30;;;;;;;;;;;2.70;99.90;;;;;;5071313;28;19912;-68
2023/01/23 05:02:56;;;;;;;;;;;2.70;99.90;;;;;;5084336;28;19947;-68
2023/01/23 05:05:22;;;;;;;;;;;2.60;99.90;;;;;;5072532;28;19908;-68
2023/01/23 05:07:47;;;;;;;;;;;2.60;99.90;;;;;;5075224;28;19915;-68
2023/01/23 05:10:13;;;;;;;;;;;2.70;99.90;;;;;;5077206;28;19911;-68
2023/01/23 05:12:39;;;;;;;;;;;2.70;99.90;;;;;;5077017;28;20282;-67
2023/01/23 05:15:05;;;;;;;;;;;2.70;99.90;;;;;;5071685;28;19912;-68
2023/01/23 05:17:31;;;;;;;;;;;2.70;99.90;;;;;;5078625;28;19920;-68
2023/01/23 05:19:56;;;;;;;;;;;2.70;99.90;;;;;;5075367;28;19912;-68
2023/01/23 05:22:22;;;;;;;;;;;2.70;99.90;;;;;;5085225;28;19908;-68
2023/01/23 05:24:47;;;;;;;;;;;2.70;99.90;;;;;;5088548;28;20046;-68
2023/01/23 05:27:13;;;;;;;;;;;2.70;99.90;;;;;;5082515;28;19904;-68
2023/01/23 05:29:39;;;;;;;;;;;2.80;99.90;;;;;;5082621;28;20380;-68
2023/01/23 05:32:04;;;;;;;;;;;2.80;99.90;;;;;;5078526;28;20399;-68
2023/01/23 05:34:30;;;;;;;;;;;2.70;99.90;;;;;;5077700;28;19904;-69
2023/01/23 05:36:55;;;;;;;;;;;2.80;99.90;;;;;;5080546;28;20002;-68
2023/01/23 05:39:21;;;;;;;;;;;2.80;99.90;;;;;;5077632;28;19914;-68
2023/01/23 05:41:46;;;;;;;;;;;2.80;99.90;;;;;;5088358;28;19908;-68
2023/01/23 05:44:12;;;;;;;;;;;2.80;99.90;;;;;;5076895;28;19912;-68
2023/01/23 05:46:37;;;;;;;;;;;2.80;99.90;;;;;;5088766;28;19953;-68
2023/01/23 05:49:02;;;;;;;;;;;2.80;99.90;;;;;;5088189;28;19908;-69
2023/01/23 05:51:31;;;;;;;;;;;2.80;99.90;;;;;;5083221;28;19974;-69
2023/01/23 05:53:57;;;;;;;;;;;2.90;99.90;;;;;;5092453;28;19915;-69
2023/01/23 05:56:22;;;;;;;;;;;2.90;99.90;;;;;;5091530;28;19908;-69
2023/01/23 05:58:48;;;;;;;;;;;2.80;99.90;;;;;;5083108;28;20384;-69
2023/01/23 06:01:13;;;;;;;;;;;2.80;99.90;;;;;;5074646;28;19908;-69
2023/01/23 06:03:39;;;;;;;;;;;2.80;99.90;;;;;;5085850;28;19909;-68
2023/01/23 06:06:04;;;;;;;;;;;2.90;99.90;;;;;;5088401;28;19912;-68
2023/01/23 06:08:30;;;;;;;;;;;2.90;99.90;;;;;;5089050;28;19904;-69
2023/01/23 06:10:59;;;;;;;;;;;2.90;99.90;;;;;;5074409;28;19912;-69
2023/01/23 06:13:24;;;;;;;;;;;2.80;99.90;;;;;;5082252;28;19908;-69
2023/01/23 06:15:50;;;;;;;;;;;2.80;99.90;;;;;;5070620;28;19953;-68
2023/01/23 06:18:15;;;;;;;;;;;2.80;99.90;;;;;;5077595;28;19912;-69
2023/01/23 06:20:41;;;;;;;;;;;2.90;99.90;;;;;;5085894;28;19961;-68
2023/01/23 06:23:06;;;;;;;;;;;3.80;99.90;;;;;;5070435;28;19912;-68
2023/01/23 06:25:32;;;;;;;;;;;2.90;99.90;;;;;;5070781;28;19908;-68
2023/01/23 06:27:57;;;;;;;;;;;2.70;99.90;;;;;;5070683;28;20311;-69
2023/01/23 06:30:23;;;;;;;;;;;2.70;99.90;;;;;;5073123;28;19915;-68
2023/01/23 06:32:48;;;;;;;;;;;2.80;99.90;;;;;;5085238;28;19912;-69
2023/01/23 06:35:14;;;;;;;;;;;2.80;99.90;;;;;;5080496;28;19908;-70
2023/01/23 06:37:39;;;;;;;;;;;2.90;99.90;;;;;;5069984;28;19909;-69
2023/01/23 06:40:05;;;;;;;;;;;2.90;99.90;;;;;;5077494;28;19915;-69
2023/01/23 06:42:31;;;;;;;;;;;2.80;99.90;;;;;;5078437;28;20288;-70
2023/01/23 06:44:56;;;;;;;;;;;2.80;99.90;;;;;;5081817;28;19908;-70
2023/01/23 06:47:23;;;;;;;;;;;2.90;99.90;;;;;;5077036;28;19909;-69
2023/01/23 06:49:48;;;;;;;;;;;2.80;99.90;;;;;;5071481;28;19908;-70
2023/01/23 06:52:14;;;;;;;;;;;2.90;99.90;;;;;;5081759;28;19908;-69
2023/01/23 06:54:39;;;;;;;;;;;2.80;99.90;;;;;;5072960;28;19961;-69
2023/01/23 06:57:05;;;;;;;;;;;2.80;99.90;;;;;;5089537;28;19919;-70
2023/01/23 06:59:31;;;;;;;;;;;2.90;99.90;;;;;;5078996;28;20360;-70
2023/01/23 07:01:56;;;;;;;;;;;3.10;99.90;;;;;;5074743;28;19954;-69
2023/01/23 07:04:22;;;;;;;;;;;2.90;99.90;;;;;;5078299;28;19908;-70
2023/01/23 07:06:47;;;;;;;;;;;2.80;99.90;;;;;;5088522;28;19947;-70
2023/01/23 07:09:13;;;;;;;;;;;2.80;99.90;;;;;;5092920;28;20314;-70
2023/01/23 07:11:38;;;;;;;;;;;2.90;99.90;;;;;;5088898;28;19970;-68
2023/01/23 07:14:04;;;;;;;;;;;3.40;99.90;;;;;;5073865;28;19923;-69
2023/01/23 07:16:29;;;;;;;;;;;2.90;99.90;;;;;;5078594;28;19912;-68
2023/01/23 07:18:57;;;;;;;;;;;3.00;99.90;;;;;;5085529;28;20292;-68
2023/01/23 07:21:23;;;;;;;;;;;2.90;99.90;;;;;;5088101;28;19915;-68
2023/01/23 07:23:49;;;;;;;;;;;2.70;99.90;;;;;;5088895;28;19908;-68
2023/01/23 07:26:15;;;;;;;;;;;3.00;99.90;;;;;;5092553;28;19904;-68
2023/01/23 07:28:40;;;;;;;;;;;2.90;99.90;;;;;;5091636;28;20065;-68
2023/01/23 07:31:06;;;;;;;;;;;2.80;99.90;;;;;;5091684;28;19912;-69
2023/01/23 07:33:32;;;;;;;;;;;2.90;99.90;;;;;;5083901;28;19908;-69
2023/01/23 07:35:57;;;;;;;;;;;3.00;99.90;;;;;;5088325;28;20383;-68
2023/01/23 07:38:22;;;;;;;;;;;3.00;99.90;;;;;;5085867;28;20286;-69
2023/01/23 07:40:48;;;;;;;;;;;2.90;99.90;;;;;;5091967;28;19912;-69
2023/01/23 07:43:14;;;;;;;;;;;3.10;99.90;;;;;;5086353;28;19912;-69
2023/01/23 07:45:39;;;;;;;;;;;3.00;99.90;;;;;;5082168;28;19908;-70
2023/01/23 07:48:05;;;;;;;;;;;3.20;99.90;;;;;;5073042;28;19991;-70
2023/01/23 07:50:30;;;;;;;;;;;3.00;99.90;;;;;;5080425;28;19917;-68
2023/01/23 07:52:56;;;;;;;;;;;3.10;99.90;;;;;;5073139;28;19915;-69
2023/01/23 07:55:21;;;;;;;;;;;2.90;99.90;;;;;;5072971;28;19904;-70
2023/01/23 07:57:47;;;;;;;;;;;4.00;99.90;;;;;;5074722;28;19942;-69
2023/01/23 08:00:12;;;;;;;;;;;3.10;99.90;;;;;;5082158;28;20453;-69
2023/01/23 08:02:38;;;;;;;;;;;3.10;99.90;;;;;;5075435;28;19908;-69
2023/01/23 08:05:04;;;;;;;;;;;4.20;99.90;;;;;;5082180;28;19911;-69
2023/01/23 08:07:30;;;;;;;;;;;3.10;99.90;;;;;;5085912;28;19930;-69
2023/01/23 08:09:55;;;;;;;;;;;3.10;99.90;;;;;;5075042;28;20310;-68
2023/01/23 08:12:21;;;;;;;;;;;3.10;99.90;;;;;;5072333;28;19912;-68
2023/01/23 08:14:46;;;;;;;;;;;3.10;99.90;;;;;;5075410;28;19944;-69
2023/01/23 08:17:12;;;;;;;;;;;3.20;99.90;;;;;;5081456;28;19974;-69
2023/01/23 08:19:38;;;;;;;;;;;3.20;99.90;;;;;;5084808;28;19904;-69
2023/01/23 08:22:03;;;;;;;;;;;3.10;99.90;;;;;;5080811;28;19912;-69
2023/01/23 08:24:28;;;;;;;;;;;3.20;99.90;;;;;;5074988;28;19974;-69
2023/01/23 08:26:54;;;;;;;;;;;3.30;99.90;;;;;;5071856;28;20518;-69
2023/01/23 08:29:19;;;;;;;;;;;3.30;99.90;;;;;;5072616;28;19916;-69
2023/01/23 08:31:45;;;;;;;;;;;3.20;99.90;;;;;;5071259;28;19911;-69
2023/01/23 08:34:10;;;;;;;;;;;3.30;99.90;;;;;;5074922;28;19912;-69
2023/01/23 08:36:36;;;;;;;;;;;3.30;99.90;;;;;;5075215;28;19908;-68
2023/01/23 08:39:02;;;;;;;;;;;3.40;99.90;;;;;;5080581;28;20011;-69
2023/01/23 08:41:27;;;;;;;;;;;3.40;99.90;;;;;;5078642;28;19912;-68
2023/01/23 08:43:53;;;;;;;;;;;3.30;99.90;;;;;;5078279;28;19916;-68
2023/01/23 08:46:18;;;;;;;;;;;3.40;99.90;;;;;;5094776;28;19908;-68
2023/01/23 08:48:44;;;;;;;;;;;3.30;99.90;;;;;;5083016;28;19908;-68
2023/01/23 08:51:11;;;;;;;;;;;3.40;99.90;;;;;;5083744;28;19908;-68
2023/01/23 08:53:37;;;;;;;;;;;3.50;99.90;;;;;;5082386;28;20424;-68
2023/01/23 08:56:04;;;;;;;;;;;5.60;99.90;;;;;;5085665;28;19940;-68
2023/01/23 08:58:30;;;;;;;;;;;3.40;99.90;;;;;;5075293;28;19912;-68
2023/01/23 09:00:56;;;;;;;;;;;3.40;99.90;;;;;;5084369;28;19914;-69
2023/01/23 09:03:21;;;;;;;;;;;3.40;99.90;;;;;;5094943;28;19908;-69
2023/01/23 09:05:47;;;;;;;;;;;3.50;99.90;;;;;;5087958;28;19953;-69
2023/01/23 09:08:12;;;;;;;;;;;3.50;99.90;;;;;;5082390;28;19908;-69
2023/01/23 09:10:38;;;;;;;;;;;3.50;99.90;;;;;;5079561;28;19915;-69
2023/01/23 09:13:03;;;;;;;;;;;3.60;99.90;;;;;;5074195;28;19915;-68
2023/01/23 09:15:29;;;;;;;;;;;3.60;99.90;;;;;;5086569;28;19907;-69
2023/01/23 09:17:54;;;;;;;;;;;3.60;99.90;;;;;;5098766;28;19998;-69
2023/01/23 09:20:20;;;;;;;;;;;3.60;99.90;;;;;;5084261;28;19916;-69
2023/01/23 09:22:45;;;;;;;;;;;3.50;99.90;;;;;;5079476;28;19962;-69
2023/01/23 09:25:11;;;;;;;;;;;3.60;99.90;;;;;;5080478;28;19908;-69
2023/01/23 09:27:37;;;;;;;;;;;3.60;99.90;;;;;;5078889;28;19904;-69
2023/01/23 09:30:03;;;;;;;;;;;3.60;99.90;;;;;;5083081;28;19998;-69
2023/01/23 09:32:28;;;;;;;;;;;3.70;99.90;;;;;;5091558;28;19908;-69
2023/01/23 09:34:54;;;;;;;;;;;3.80;99.90;;;;;;5087269;28;19908;-70
2023/01/23 09:37:20;;;;;;;;;;;5.40;99.90;;;;;;5092661;28;19915;-71
2023/01/23 09:39:45;;;;;;;;;;;3.70;99.90;;;;;;5108495;28;19960;-70
2023/01/23 09:42:18;;;;;;;;;;;3.70;99.90;;;;;;5100527;28;19916;-70
2023/01/23 09:44:46;;;;;;;;;;;3.30;99.90;;;;;;5098216;28;20368;-69
2023/01/23 09:47:16;;;;;;;;;;;3.80;99.90;;;;;;5105068;28;19926;-70
2023/01/23 09:49:45;;;;;;;;;;;3.80;99.90;;;;;;5097469;28;20352;-70
2023/01/23 09:52:14;;;;;;;;;;;3.90;99.90;;;;;;5083522;28;19915;-70
2023/01/23 09:54:39;;;;;;;;;;;5.20;99.90;;;;;;5077171;28;19908;-69
2023/01/23 09:57:10;;;;;;;;;;;4.00;99.90;;;;;;5081129;28;20382;-69
2023/01/23 09:59:37;;;;;;;;;;;4.00;99.90;;;;;;5087236;28;19946;-69
2023/01/23 10:02:14;;;;;;;;;;;4.00;99.90;;;;;;5099090;28;19912;-70
2023/01/23 10:04:39;;;;;;;;;;;4.00;99.90;;;;;;5096866;28;19924;-69
2023/01/23 10:07:12;;;;;;;;;;;4.00;99.90;;;;;;5083263;28;19911;-69
2023/01/23 10:09:55;;;;;;;;;;;4.00;99.90;;;;;;5076643;28;19932;-70
2023/01/23 10:12:27;;;;;;;;;;;4.10;99.90;;;;;;5095752;28;19998;-71
2023/01/23 10:14:58;;;;;;;;;;;4.10;99.90;;;;;;5102622;28;19904;-70
2023/01/23 10:17:29;;;;;;;;;;;4.10;99.90;;;;;;5087240;28;19977;-69
2023/01/23 10:20:13;;;;;;;;;;;4.10;99.90;;;;;;5087060;28;19914;-70
2023/01/23 10:22:46;;;;;;;;;;;4.10;99.90;;;;;;5089709;28;19912;-70
2023/01/23 10:25:40;;;;;;;;;;;4.10;99.90;;;;;;5087926;28;20586;-70
2023/01/23 10:28:24;;;;;;;;;;;4.00;99.90;;;;;;5065254;28;19915;-70
2023/01/23 10:30:53;;;;;;;;;;;4.10;99.90;;;;;;5079204;28;19908;-70
2023/01/23 10:33:19;;;;;;;;;;;4.00;99.90;;;;;;5095942;28;19912;-70
2023/01/23 10:35:49;;;;;;;;;;;4.20;99.90;;;;;;5094084;28;20418;-70
2023/01/23 10:38:30;;;;;;;;;;;4.10;99.90;;;;;;5090235;28;20006;-70
2023/01/23 10:41:13;;;;;;;;;;;4.20;99.90;;;;;;5089703;28;19922;-70
2023/01/23 10:43:39;;;;;;;;;;;4.30;99.90;;;;;;5088444;28;19919;-69
2023/01/23 10:46:13;;;;;;;;;;;4.50;99.90;;;;;;5094754;28;20006;-68
2023/01/23 10:48:43;;;;;;;;;;;4.40;99.90;;;;;;5100831;28;19995;-68
2023/01/23 10:51:28;;;;;;;;;;;4.50;99.90;;;;;;5093380;28;19933;-69
2023/01/23 10:54:13;;;;;;;;;;;4.50;99.90;;;;;;5087042;28;19904;-68
2023/01/23 10:56:46;;;;;;;;;;;4.50;99.90;;;;;;5084438;28;19950;-69
2023/01/23 10:59:18;;;;;;;;;;;4.50;99.90;;;;;;5082789;28;20356;-69
2023/01/23 11:01:53;;;;;;;;;;;4.50;99.90;;;;;;5093937;28;20421;-69
2023/01/23 11:04:20;;;;;;;;;;;4.50;99.90;;;;;;5086707;28;20379;-69
2023/01/23 11:07:04;;;;;;;;;;;4.50;99.90;;;;;;5080171;28;19908;-69
2023/01/23 11:09:30;;;;;;;;;;;4.50;99.90;;;;;;5099364;28;19908;-68
2023/01/23 11:12:03;;;;;;;;;;;4.50;99.90;;;;;;5108184;28;20348;-69
2023/01/23 11:14:29;;;;;;;;;;;4.60;99.90;;;;;;5102474;28;19908;-69
2023/01/23 11:17:13;;;;;;;;;;;4.60;99.90;;;;;;5100960;28;19915;-68
2023/01/23 11:19:40;;;;;;;;;;;4.70;99.90;;;;;;5103053;28;19911;-68
2023/01/23 11:22:21;;;;;;;;;;;4.70;99.90;;;;;;5079125;28;19908;-67
2023/01/23 11:24:47;;;;;;;;;;;4.70;99.90;;;;;;5072810;28;20269;-68
2023/01/23 11:27:22;;;;;;;;;;;4.80;99.90;;;;;;5072751;28;19915;-68
2023/01/23 11:30:05;;;;;;;;;;;4.80;99.90;;;;;;5093838;28;20023;-68
2023/01/23 11:32:32;;;;;;;;;;;4.90;99.90;;;;;;5086470;28;20699;-67
2023/01/23 11:35:23;;;;;;;;;;;4.90;99.90;;;;;;5086086;28;19912;-67
2023/01/23 11:37:49;;;;;;;;;;;4.90;99.90;;;;;;5063196;28;20416;-67
2023/01/23 11:40:16;;;;;;;;;;;4.80;99.90;;;;;;5082579;28;20026;-67
2023/01/23 11:42:42;;;;;;;;;;;4.80;99.90;;;;;;5086171;28;20272;-67
2023/01/23 11:45:12;;;;;;;;;;;2.90;99.90;;;;;;5083531;28;19910;-67
2023/01/23 11:47:53;;;;;;;;;;;4.80;99.90;;;;;;5080140;28;20405;-67
2023/01/23 11:50:33;;;;;;;;;;;4.90;99.90;;;;;;5102557;28;20000;-67
2023/01/23 11:53:02;;;;;;;;;;;4.90;99.90;;;;;;5104881;28;19908;-68
2023/01/23 11:55:40;;;;;;;;;;;4.90;99.90;;;;;;5085093;28;19914;-68
2023/01/23 11:58:13;;;;;;;;;;;4.80;99.90;;;;;;5095641;28;19912;-68
2023/01/23 12:00:50;;;;;;;;;;;4.80;99.90;;;;;;5094830;28;19912;-67
2023/01/23 12:03:34;;;;;;;;;;;4.70;99.90;;;;;;5089025;28;20269;-67
2023/01/23 12:06:04;;;;;;;;;;;4.70;99.90;;;;;;5075823;28;19928;-67
2023/01/23 12:08:33;;;;;;;;;;;4.70;99.90;;;;;;5072349;28;19909;-67
2023/01/23 12:11:01;;;;;;;;;;;4.70;99.90;;;;;;5072006;28;19935;-68
2023/01/23 12:13:40;;;;;;;;;;;4.70;99.90;;;;;;5071021;28;19904;-68
2023/01/23 12:16:12;;;;;;;;;;;4.70;99.90;;;;;;5079058;28;19949;-67
2023/01/23 12:18:38;;;;;;;;;;;;;;;;;;5089843;28;19908;-68
2023/01/23 12:21:04;;;;;;;;;;;;;;;;;;5074347;28;19904;-67
2023/01/23 12:23:35;;;;;;;;;;;5.00;99.90;;;;;;5071875;28;20042;-66
2023/01/23 12:26:09;;;;;;;;;;;4.90;99.90;;;;;;5099906;28;19916;-69
2023/01/23 12:28:35;;;;;;;;;;;;;;;;;;5100807;28;19947;-68
2023/01/23 12:31:13;;;;;;;;;;;5.00;99.90;;;;;;5075288;28;19936;-68
2023/01/23 12:33:39;;;;;;;;;;;;;;;;;;5074248;28;19909;-68
2023/01/23 12:36:23;;;;;;;;;;;5.00;99.90;;;;;;5071164;28;19935;-68
2023/01/23 12:38:49;;;;;;;;;;;;;;;;;;5071710;28;19916;-68
2023/01/23 12:41:18;;;;;;;;;;;5.10;99.90;;;;;;5071824;28;20004;-68
2023/01/23 12:43:44;;;;;;;;;;;;;;;;;;5093644;28;19916;-68
2023/01/23 12:46:12;;;;;;;;;;;5.20;99.90;;;;;;5081865;28;19904;-69
2023/01/23 12:48:38;;;;;;;;;;;;;;;;;;5077314;28;19965;-68
2023/01/23 12:51:33;;;;;;;;;;;5.10;99.90;;;;;;5076332;28;20669;-68
2023/01/23 12:53:59;;;;;;;;;;;;;;;;;;5058283;28;19904;-68
2023/01/23 12:56:25;;;;;;;;;;;;;;;;;;5083126;28;19915;-68
2023/01/23 12:58:51;;;;;;;;;;;;;;;;;;5091343;28;20274;-68
2023/01/23 13:01:17;;;;;;;;;;;;;;;;;;5084756;28;19953;-68
2023/01/23 13:03:54;;;;;;;;;;;5.30;99.90;;;;;;5081566;28;19908;-68
2023/01/23 13:06:20;;;;;;;;;;;;;;;;;;5082596;28;19908;-68
2023/01/23 13:08:46;;;;;;;;;;;;;;;;;;5089459;28;19904;-68
2023/01/23 13:13:56;;;;;;;;;;;;;;;;;;5079185;28;19915;-68
2023/01/23 13:16:22;;;;;;;;;;;;;;;;;;5070489;28;19905;-69
2023/01/23 13:25:08;;;;;;;;;;;;;;;;;;5070386;28;19911;-69
2023/01/23 13:27:03;;;;;;;;;;;;;;;;;;5069524;28;19927;-68
2023/01/23 13:29:29;;;;;;;;;;;;;;;;;;5076436;28;19904;-68
2023/01/23 13:31:56;;;;;;;;;;;;;;;;;;5089933;28;19954;-69
2023/01/23 13:34:21;;;;;;;;;;;;;;;;;;5076435;28;19912;-69
2023/01/23 13:36:47;;;;;;;;;;;;;;;;;;5069473;28;19912;-69
2023/01/23 13:39:13;;;;;;;;;;;;;;;;;;5094344;28;20257;-69
2023/01/23 13:41:39;;;;;;;;;;;5.20;99.90;;;;;;5096365;28;19904;-69
2023/01/23 13:44:23;;;;;;;;;;;5.10;99.90;;;;;;5071950;28;19919;-68
2023/01/23 13:46:48;;;;;;;;;;;5.10;99.90;;;;;;5075184;28;19908;-68
2023/01/23 13:56:37;;;;;;;;;;;5.00;99.90;;;;;;5088961;28;19992;-68
2023/01/23 13:57:38;;;;;;;;;;;;;;;;;;5070207;28;19934;-68
2023/01/23 14:00:05;;;;;;;;;;;4.90;99.90;;;;;;5071043;28;19905;-67
2023/01/23 14:05:16;;;;;;;;;;;;;;;;;;5071024;28;19911;-67
2023/01/23 14:07:42;;;;;;;;;;;;;;;;;;5073488;28;20285;-67
2023/01/23 14:10:07;;;;;;;;;;;;;;;;;;5086037;28;19905;-67
2023/01/23 14:12:34;;;;;;;;;;;;;;;;;;5087838;28;19904;-67
2023/01/23 14:17:43;;;;;;;;;;;;;;;;;;5079124;28;20402;-67
2023/01/23 14:20:09;;;;;;;;;;;;;;;;;;5094012;28;19904;-67
2023/01/23 14:22:35;;;;;;;;;;;;;;;;;;5093452;28;19912;-67
2023/01/23 14:25:01;;;;;;;;;;;;;;;;;;5102517;28;19968;-68
2023/01/23 14:27:27;;;;;;;;;;;;;;;;;;5096256;28;19916;-67
2023/01/23 14:29:53;;;;;;;;;;;;;;;;;;5104428;28;19940;-68
2023/01/23 14:32:19;;;;;;;;;;;;;;;;;;5082934;28;19920;-68
2023/01/23 14:34:45;;;;;;;;;;;;;;;;;;5082400;28;19909;-68
2023/01/23 14:37:10;;;;;;;;;;;;;;;;;;5082643;28;19997;-68
2023/01/23 14:39:36;;;;;;;;;;;;;;;;;;5074905;28;19915;-68
2023/01/23 14:42:02;;;;;;;;;;;;;;;;;;5075729;28;19931;-68
2023/01/23 14:44:31;;;;;;;;;;;4.60;99.90;;;;;;5080614;28;20361;-68
2023/01/23 14:46:58;;;;;;;;;;;4.50;99.90;;;;;;5107013;28;19904;-68
2023/01/23 14:49:24;;;;;;;;;;;;;;;;;;5091100;28;19984;-68
2023/01/23 14:51:57;;;;;;;;;;;4.40;99.90;;;;;;5078846;28;19905;-68
2023/01/23 14:54:23;;;;;;;;;;;;;;;;;;5076211;28;19911;-68
2023/01/23 14:56:49;;;;;;;;;;;4.30;99.90;;;;;;5088921;28;19908;-68
2023/01/23 14:59:15;;;;;;;;;;;;;;;;;;5085268;28;19915;-68
2023/01/23 15:01:41;;;;;;;;;;;;;;;;;;5109695;28;20256;-69
2023/01/23 15:04:18;;;;;;;;;;;4.30;99.90;;;;;;5101702;28;19904;-69
2023/01/23 15:06:49;;;;;;;;;;;4.50;99.90;;;;;;5090336;28;20670;-69
2023/01/23 15:09:15;;;;;;;;;;;4.50;99.90;;;;;;5089489;28;19908;-69
2023/01/23 15:11:41;;;;;;;;;;;;;;;;;;5073081;28;19915;-69